Strona główna
Zdjęcia satelitarne 10-dni prognozyKlimatMeteorologia morska Cyklony Błyskawica LotniskoFAQ Gazetka O
Pogoda : Europa Afryka Ameryka Północna Ameryka Południowa Azja Australia-Oceania Inny
Języki Kontakt

Katowice, Polska

Port lotniczy Katowice-Pyrzowice

Szerokość geograficzna: 50-28-27N, Długość geograficzna: 019-04-48E, wysokość: 284 m


METAR: EPKT 300930Z VRB02KT CAVOK 21/10 Q1022
TAF: EPKT 300830Z 3009/3018 VRB02KT CAVOK TEMPO 3013/3018 SCT030CB

czas: 11:57 (09:57 UTC)

Aktualna obserwacja pogody

Raport powstał 27 minut temu, godzina 09:30 UTC
Wiatr 2 kt z kierunków zmiennych
Temperatura 21°C
Wilgotność 49%
Ciśnienie 1022 hPa
Widzialność 10 km lub więcej
Brak chmur poniżej 1500 m i brak chmur cumulonimbus

Jednostka miary

Prognoza

Raport powstał 1 godzina i 27 minut temu, godzina 08:30 UTC
Prognoza ważna od 30 godzina 09 UTC do 30 godzina 18 UTC
Wiatr 2 kt z kierunków zmiennych
Widzialność 10 km lub więcej
Brak chmur poniżej 1500 m i brak chmur cumulonimbus
Przejściowo
od 30 godzina 13 UTC do 30 godzina 18 UTC
Rozproszone chmury na wysokości 3000 ft, Cumulonimbus.
Informacje na tej stronie internetowej podlegają klauzuli o wyłączeniu odpowiedzialności
Pogoda : Europa Afryka Ameryka Północna Ameryka Południowa Azja Australia-Oceania Inny
Zdjęcia satelitarne 10-dni prognozyKlimatMeteorologia morska Cyklony Błyskawica LotniskoFAQ Języki Kontakt Gazetka O